ePrivacy and GPDR Cookie Consent by Cookie Consent
EmailTwitter


Observations de surface / France / LFBO (07630)

Régions: Québec | Canada | États-Unis | Europe | France | UK | Ailleurs
Station
Affichage
Infos & localisation pour LFBO (07630) | Aide pour décoder les METARs

Observations prises le 2024-04-18 à 04H30 UTC à TOULOUSE/BLAGNAC, FR (LFBO)

Etat du ciel: partiellement nuageux.

Température: 8.0 Celsius

Point de rosée: 6.0 Celsius

Humidité relative: 87%

Facteur vent 5.

Vents: Ouest à 22 km/h ou 12 noeuds.

Pression au niveau moyen de la mer: 101.80 kilopascals.

Visibilité horizontale: 6.21 milles terrestres ou 9.94 kilomètres.

Hauteur du plafond: 762 mètres ( 2500 pieds ).

Observation METAR:

LFBO 180430Z AUTO 26012KT 9999 FEW017 BKN025 BKN035 08/06 Q1018 TEMPO BKN013=